OPRN/ISB METAR and TAF weather

Enter ICAO airport designator
Station Type Date Time Source
OPRN METAR 2020/04/01 00:00 UTC NOAA

OPRN 010000Z METAR OPSK 010000Z 05006KT 3000 HZ NSC 20/16 Q1008 NOSIG


Station Type Date Time Source
OPRN Decoded METAR 2020/04/01 00:00 UTC NOAA

Islamabad Airport, Pakistan (OPRN) 33-37N 073-06E 508M
Mar 31, 2020 - 08:00 PM EDT / 2020.04.01 0000 UTC
Wind: from the NE (050 degrees) at 7 MPH (6 KT):0
Visibility: 1 mile(s):0
Weather: haze
Temperature: 68 F (20 C)
Dew Point: 60 F (16 C)
Relative Humidity: 77%
Pressure (altimeter): 29.77 in. Hg (1008 hPa)
ob: OPRN 010000Z METAR OPSK 010000Z 05006KT 3000 HZ NSC 20/16 Q1008 NOSIG
cycle: 0

Station Type Date Time Source
OPRN TAF 2019/05/15 18:06 UTC NOAA

TAF OPRN 151530Z 1518/1624 13010KT 7000 SCT040 SCT100
TEMPO 1518/1521 13010G25KT 5000 VCTS FEW030TCU/CB SCT040 BKN100
BECMG 1603/1605 23010KT 9999 FEW040

Example: see airport list